Time;durP1;ratioP1;P1;durP2;ratioP2;P2;SDS_P1;SDS_P2;PMS_P1;PMS_P2;Temp;Humidity;BMP_temperature;BMP_pressure;BME280_temperature;BME280_humidity;BME280_pressure;Samples;Min_cycle;Max_cycle;Signal;HPM_P1;HPM_P2
2020/12/14 00:03:46;;;;;;;9.50;5.80;;;;;;;5.02;100.00;100120.84;10173575;29;20044;-72
2020/12/14 00:08:47;;;;;;;12.27;6.25;;;;;;;4.95;100.00;100096.66;10174441;29;20075;-72
2020/12/14 00:13:48;;;;;;;9.85;5.65;;;;;;;5.00;100.00;100112.19;10175421;29;20499;-71
2020/12/14 00:18:49;;;;;;;8.25;4.57;;;;;;;5.05;100.00;100121.59;10173050;29;20070;-72
2020/12/14 00:23:51;;;;;;;11.13;5.20;;;;;;;5.07;100.00;100119.78;10174350;29;20048;-72
2020/12/14 00:28:52;;;;;;;8.50;5.10;;;;;;;5.07;100.00;100104.13;10174179;29;20385;-71
2020/12/14 00:33:54;;;;;;;6.28;3.60;;;;;;;5.08;100.00;100105.84;10180545;29;20056;-72
2020/12/14 00:38:55;;;;;;;9.15;5.28;;;;;;;4.99;100.00;100097.41;10182005;29;20048;-71
2020/12/14 00:43:56;;;;;;;7.32;4.20;;;;;;;5.07;100.00;100104.13;10182617;29;20044;-71
2020/12/14 00:48:57;;;;;;;9.00;4.93;;;;;;;5.08;100.00;100092.78;10181508;29;20044;-72
2020/12/14 00:53:58;;;;;;;8.35;4.53;;;;;;;5.02;100.00;100082.50;10180937;29;20047;-72
2020/12/14 00:59:00;;;;;;;8.07;4.32;;;;;;;5.07;100.00;100078.03;10182199;29;20488;-71
2020/12/14 01:04:01;;;;;;;8.27;4.05;;;;;;;5.10;100.00;100077.09;10181508;29;20048;-72
2020/12/14 01:09:02;;;;;;;5.90;3.15;;;;;;;5.14;100.00;100060.41;10180812;29;20050;-72
2020/12/14 01:14:03;;;;;;;8.25;3.97;;;;;;;5.11;100.00;100074.41;10180811;29;20103;-72
2020/12/14 01:19:04;;;;;;;8.43;3.75;;;;;;;5.11;100.00;100087.44;10180775;29;20055;-72
2020/12/14 01:24:05;;;;;;;5.63;3.25;;;;;;;5.21;100.00;100085.41;10180877;29;20055;-72
2020/12/14 01:29:07;;;;;;;6.65;3.78;;;;;;;5.22;100.00;100080.16;10179679;29;20072;-72
2020/12/14 01:34:08;;;;;;;9.25;3.53;;;;;;;5.16;100.00;100075.13;10180927;29;20037;-72
2020/12/14 01:39:09;;;;;;;7.10;3.95;;;;;;;5.17;100.00;100068.16;10180030;29;20048;-72
2020/12/14 01:44:10;;;;;;;8.02;4.03;;;;;;;5.09;100.00;100051.88;10178667;29;20508;-72
2020/12/14 01:49:12;;;;;;;10.38;4.63;;;;;;;5.00;100.00;100053.00;10178710;29;20036;-72
2020/12/14 01:54:22;;;;;;;10.73;4.40;;;;;;;5.00;100.00;100062.59;10178899;29;20055;-72
2020/12/14 01:59:23;;;;;;;8.50;4.78;;;;;;;5.02;100.00;100066.84;10179215;29;20036;-72
2020/12/14 02:04:24;;;;;;;7.25;4.00;;;;;;;4.97;100.00;100059.16;10178505;29;20496;-72
2020/12/14 02:09:25;;;;;;;11.05;4.78;;;;;;;4.89;100.00;100055.06;10177726;29;20457;-72
2020/12/14 02:14:27;;;;;;;12.43;5.40;;;;;;;4.75;100.00;100059.84;10178163;29;20055;-72
2020/12/14 02:19:28;;;;;;;7.88;4.40;;;;;;;4.60;100.00;100055.09;10171528;29;20051;-72
2020/12/14 02:24:29;;;;;;;13.13;5.85;;;;;;;4.53;100.00;100044.81;10177761;29;20044;-72
2020/12/14 02:29:30;;;;;;;9.25;4.63;;;;;;;4.57;100.00;100053.41;10150236;29;20404;-72
2020/12/14 02:34:31;;;;;;;7.90;4.20;;;;;;;4.55;100.00;100050.84;10176654;29;20044;-72
2020/12/14 02:39:33;;;;;;;9.95;4.50;;;;;;;4.61;100.00;100039.38;10177523;29;20376;-72
2020/12/14 02:44:35;;;;;;;7.70;4.53;;;;;;;4.58;100.00;100039.47;10177815;29;20388;-72
2020/12/14 02:49:36;;;;;;;10.85;4.32;;;;;;;4.51;100.00;100035.34;10177547;29;20505;-72
2020/12/14 02:54:39;;;;;;;8.35;4.13;;;;;;;4.53;100.00;100050.03;10173272;29;20032;-72
2020/12/14 02:59:41;;;;;;;8.25;4.38;;;;;;;4.43;100.00;100039.91;10171419;29;20444;-72
2020/12/14 03:04:42;;;;;;;10.05;4.32;;;;;;;4.46;100.00;100048.50;10151135;29;20485;-72
2020/12/14 03:09:43;;;;;;;8.07;4.22;;;;;;;4.55;100.00;100045.63;10166206;29;20052;-72
2020/12/14 03:14:44;;;;;;;11.02;4.30;;;;;;;4.57;100.00;100040.38;10176269;29;20056;-72
2020/12/14 03:19:45;;;;;;;11.50;4.38;;;;;;;4.68;100.00;100047.91;10176346;29;20051;-72
2020/12/14 03:24:46;;;;;;;10.40;3.88;;;;;;;4.64;100.00;100047.13;10176126;29;20044;-72
2020/12/14 03:29:47;;;;;;;8.18;4.43;;;;;;;4.68;100.00;100038.31;10174874;29;20052;-72
2020/12/14 03:34:49;;;;;;;7.82;4.28;;;;;;;4.62;100.00;100046.28;10176757;29;20052;-72
2020/12/14 03:39:50;;;;;;;8.32;3.80;;;;;;;4.45;100.00;100036.34;10175530;29;20547;-72
2020/12/14 03:44:52;;;;;;;7.43;3.63;;;;;;;4.44;100.00;100039.00;10175858;29;20044;-72
2020/12/14 03:49:53;;;;;;;11.25;4.18;;;;;;;4.46;100.00;100045.88;10174746;29;20047;-72
2020/12/14 03:54:54;;;;;;;8.82;4.50;;;;;;;4.61;100.00;100059.38;10175452;29;20424;-72
2020/12/14 03:59:55;;;;;;;9.90;3.42;;;;;;;4.74;100.00;100059.00;10175598;29;20055;-72
2020/12/14 04:04:56;;;;;;;6.28;3.47;;;;;;;4.92;100.00;100074.13;10173616;29;20523;-72
2020/12/14 04:09:57;;;;;;;6.85;3.97;;;;;;;5.04;100.00;100088.53;10172063;29;20036;-72
2020/12/14 04:14:58;;;;;;;6.50;3.67;;;;;;;5.03;100.00;100078.13;10174221;29;20051;-72
2020/12/14 04:19:59;;;;;;;8.52;4.07;;;;;;;5.05;100.00;100079.81;10157856;29;20060;-71
2020/12/14 04:25:00;;;;;;;8.52;4.35;;;;;;;5.18;100.00;100085.53;10173876;29;20052;-72
2020/12/14 04:30:02;;;;;;;8.32;4.00;;;;;;;5.27;100.00;100099.13;10173851;29;20063;-72
2020/12/14 04:35:03;;;;;;;8.52;4.25;;;;;;;5.36;100.00;100081.50;10173957;29;20044;-72
2020/12/14 04:40:05;;;;;;;6.78;3.42;;;;;;;5.30;100.00;100072.06;10174588;29;20048;-72
2020/12/14 04:45:08;;;;;;;8.90;2.85;;;;;;;5.35;100.00;100067.59;10174220;29;20063;-72
2020/12/14 04:50:09;;;;;;;9.30;3.22;;;;;;;5.43;100.00;100081.25;10173989;29;20059;-72
2020/12/14 04:55:11;;;;;;;6.82;2.55;;;;;;;5.46;100.00;100078.53;10173356;29;20396;-72
2020/12/14 05:00:12;;;;;;;7.45;2.80;;;;;;;5.46;100.00;100073.31;10172970;29;20052;-72
2020/12/14 05:05:13;;;;;;;6.95;3.28;;;;;;;5.50;100.00;100079.28;10165375;29;20066;-72
2020/12/14 05:10:15;;;;;;;8.23;3.42;;;;;;;5.47;100.00;100067.19;10173664;29;20046;-72
2020/12/14 05:15:30;;;;;;;7.45;3.00;;;;;;;5.37;100.00;100054.44;10173978;29;20048;-72
2020/12/14 05:20:31;;;;;;;7.13;3.72;;;;;;;5.31;100.00;100045.06;10180667;29;20701;-72
2020/12/14 05:25:32;;;;;;;6.88;3.47;;;;;;;5.12;100.00;100030.88;10179795;29;20052;-72
2020/12/14 05:30:54;;;;;;;5.32;2.63;;;;;;;4.96;100.00;100033.97;10180139;29;20055;-72
2020/12/14 05:35:56;;;;;;;4.45;3.05;;;;;;;4.90;100.00;100041.13;10141390;29;20047;-72
2020/12/14 05:41:05;;;;;;;6.53;3.13;;;;;;;4.86;100.00;100053.41;10175961;29;20044;-72
2020/12/14 05:46:15;;;;;;;6.65;3.28;;;;;;;4.92;100.00;100057.59;10179580;29;20048;-72
2020/12/14 05:51:17;;;;;;;8.55;3.83;;;;;;;5.07;100.00;100064.97;10175880;29;20049;-72
2020/12/14 05:56:18;;;;;;;5.22;3.05;;;;;;;4.98;100.00;100065.25;10177991;29;20059;-72
2020/12/14 06:01:21;;;;;;;6.25;3.40;;;;;;;4.96;100.00;100069.66;10178897;29;20131;-72
2020/12/14 06:06:29;;;;;;;8.30;3.63;;;;;;;4.99;100.00;100073.94;10179475;29;20136;-72
2020/12/14 06:11:35;;;;;;;8.90;3.97;;;;;;;5.15;100.00;100070.81;10178900;29;20040;-72
2020/12/14 06:16:37;;;;;;;7.10;4.18;;;;;;;5.17;100.00;100061.19;10178299;29;20044;-72
2020/12/14 06:21:58;;;;;;;6.45;3.85;;;;;;;5.20;100.00;100073.25;10179102;29;20103;-72
2020/12/14 06:27:01;;;;;;;5.60;2.95;;;;;;;5.14;100.00;100078.69;10178180;29;20055;-72
2020/12/14 06:32:03;;;;;;;5.45;3.45;;;;;;;5.24;100.00;100085.34;10177383;29;20056;-72
2020/12/14 06:37:05;;;;;;;7.05;3.42;;;;;;;5.41;100.00;100090.88;10176797;29;20555;-72
2020/12/14 06:42:09;;;;;;;5.10;3.50;;;;;;;5.49;100.00;100091.50;10173612;29;20388;-72
2020/12/14 06:47:18;;;;;;;7.28;3.45;;;;;;;5.55;100.00;100093.91;10168375;29;20051;-71
2020/12/14 06:52:35;;;;;;;7.32;3.22;;;;;;;5.69;100.00;100088.25;10171024;29;20048;-68
2020/12/14 06:57:38;;;;;;;7.22;3.47;;;;;;;5.70;100.00;100090.78;10172432;29;20123;-70
2020/12/14 07:02:41;;;;;;;6.53;3.60;;;;;;;5.67;100.00;100084.84;10174726;29;20053;-70
2020/12/14 07:07:52;;;;;;;15.40;4.22;;;;;;;5.75;100.00;100084.59;10174796;29;20044;-71
2020/12/14 07:12:54;;;;;;;4.85;2.97;;;;;;;5.82;100.00;100105.25;10155827;29;20497;-70
2020/12/14 07:18:14;;;;;;;4.95;3.08;;;;;;;5.73;100.00;100111.63;10165261;29;20055;-72
2020/12/14 07:23:15;;;;;;;;;;;;;;;5.53;100.00;100115.75;10160953;29;20048;-72
2020/12/14 07:28:17;;;;;;;7.03;3.67;;;;;;;5.46;100.00;100124.69;10174448;29;19927;-73
2020/12/14 07:33:18;;;;;;;6.95;4.00;;;;;;;5.40;100.00;100128.34;10174831;29;20441;-71
2020/12/14 07:38:19;;;;;;;4.82;3.22;;;;;;;5.38;100.00;100153.66;10176109;29;20040;-70
2020/12/14 07:43:21;;;;;;;10.23;4.22;;;;;;;5.45;100.00;100151.72;10175129;29;20051;-71
2020/12/14 07:48:22;;;;;;;7.88;4.18;;;;;;;5.52;100.00;100164.56;10173438;29;20564;-70
2020/12/14 07:53:23;;;;;;;9.00;3.88;;;;;;;5.60;100.00;100177.41;10173856;29;20040;-70
2020/12/14 07:58:24;;;;;;;8.20;4.40;;;;;;;5.68;100.00;100176.25;10173989;29;20056;-70
2020/12/14 08:03:25;;;;;;;6.00;3.53;;;;;;;5.71;100.00;100170.06;10173604;29;20051;-70
2020/12/14 08:08:27;;;;;;;7.15;3.97;;;;;;;5.75;100.00;100181.28;10173031;29;20083;-70
2020/12/14 08:13:28;;;;;;;8.10;4.20;;;;;;;5.74;100.00;100175.19;10173657;29;20048;-69
2020/12/14 08:18:30;;;;;;;7.65;3.83;;;;;;;5.75;100.00;100176.91;10175090;29;20136;-70
2020/12/14 08:23:31;;;;;;;5.85;3.45;;;;;;;5.72;100.00;100190.91;10171859;29;20500;-71
2020/12/14 08:28:36;;;;;;;5.78;3.00;;;;;;;5.77;100.00;100176.88;10173762;29;20400;-70
2020/12/14 08:33:49;;;;;;;7.07;3.78;;;;;;;5.83;100.00;100187.97;10171117;29;20419;-70
2020/12/14 08:38:51;;;;;;;7.13;4.35;;;;;;;5.89;100.00;100184.34;10173699;29;20123;-71
2020/12/14 08:43:53;;;;;;;7.43;5.43;;;;;;;6.02;100.00;100220.53;10174220;29;20051;-71
2020/12/14 08:49:01;;;;;;;8.32;4.78;;;;;;;6.01;100.00;100210.97;10173950;29;20424;-71
2020/12/14 08:54:15;;;;;;;6.38;4.30;;;;;;;6.01;100.00;100217.94;10178066;29;20491;-70
2020/12/14 08:59:17;;;;;;;6.20;4.10;;;;;;;6.05;100.00;100233.47;10180741;29;20052;-72
2020/12/14 09:04:26;;;;;;;8.80;4.90;;;;;;;6.07;100.00;100234.28;10178746;29;20484;-71
2020/12/14 09:09:30;;;;;;;7.30;4.07;;;;;;;6.10;100.00;100241.19;10153891;29;20064;-68
2020/12/14 09:14:32;;;;;;;7.53;4.93;;;;;;;6.18;100.00;100243.56;10175101;29;20127;-69
2020/12/14 09:19:34;;;;;;;10.98;5.00;;;;;;;6.27;100.00;100238.03;10179279;29;20048;-70
2020/12/14 09:24:36;;;;;;;8.15;5.07;;;;;;;6.29;100.00;100247.53;10179648;29;20489;-71
2020/12/14 09:29:39;;;;;;;9.88;4.65;;;;;;;6.36;100.00;100262.13;10180161;29;20056;-70
2020/12/14 09:34:41;;;;;;;9.70;5.30;;;;;;;6.53;100.00;100248.47;10178732;29;20616;-70
2020/12/14 09:39:43;;;;;;;10.98;5.65;;;;;;;6.53;100.00;100251.09;10179937;29;20055;-71
2020/12/14 09:44:45;;;;;;;9.15;5.65;;;;;;;6.67;100.00;100255.88;10179134;29;20584;-70
2020/12/14 09:49:47;;;;;;;6.68;4.38;;;;;;;6.70;100.00;100242.66;10179413;29;20056;-70
2020/12/14 09:54:48;;;;;;;10.80;5.15;;;;;;;6.79;100.00;100237.97;10179496;29;20051;-70
2020/12/14 09:59:50;;;;;;;6.78;3.75;;;;;;;6.95;100.00;100242.69;10177709;29;20496;-70
2020/12/14 10:04:51;;;;;;;9.40;4.88;;;;;;;7.38;100.00;100242.84;10175903;29;20053;-71
2020/12/14 10:09:53;;;;;;;5.65;3.58;;;;;;;7.01;100.00;100229.38;10179368;29;20237;-70
2020/12/14 10:14:55;;;;;;;10.07;5.57;;;;;;;6.72;100.00;100215.53;10178326;29;20040;-70
2020/12/14 10:19:56;;;;;;;10.88;5.22;;;;;;;6.63;100.00;100230.69;10178265;29;20052;-70
2020/12/14 10:24:57;;;;;;;8.57;5.50;;;;;;;6.58;100.00;100258.81;10178376;29;20044;-71
2020/12/14 10:29:58;;;;;;;8.88;6.28;;;;;;;6.61;100.00;100288.34;10175171;29;20500;-70
2020/12/14 10:35:00;;;;;;;7.80;5.03;;;;;;;6.58;100.00;100277.13;10168042;29;20044;-70
2020/12/14 10:40:04;;;;;;;9.70;5.80;;;;;;;6.71;100.00;100286.28;10173442;29;20048;-70
2020/12/14 10:45:05;;;;;;;7.35;4.85;;;;;;;6.88;100.00;100283.94;10155314;29;20047;-70
2020/12/14 10:50:07;;;;;;;11.45;5.97;;;;;;;7.22;100.00;100266.13;10175748;29;20407;-71
2020/12/14 10:55:09;;;;;;;11.07;5.20;;;;;;;7.30;100.00;100247.50;10175504;29;20040;-70
2020/12/14 11:00:10;;;;;;;8.10;5.15;;;;;;;7.30;100.00;100229.16;10176904;29;20052;-69
2020/12/14 11:05:12;;;;;;;8.07;4.93;;;;;;;7.38;100.00;100213.16;10176507;29;20044;-70
2020/12/14 11:10:13;;;;;;;7.28;4.32;;;;;;;7.46;100.00;100190.13;10176127;29;20048;-70
2020/12/14 11:15:14;;;;;;;8.02;4.82;;;;;;;7.58;100.00;100187.06;10175693;29;20040;-70
2020/12/14 11:20:15;;;;;;;8.65;4.63;;;;;;;7.81;100.00;100171.28;10175373;29;20067;-69
2020/12/14 11:25:17;;;;;;;6.95;3.70;;;;;;;7.78;100.00;100149.59;10175454;29;20048;-71
2020/12/14 11:30:19;;;;;;;7.80;3.80;;;;;;;7.88;100.00;100133.38;10175832;29;20080;-71
2020/12/14 11:35:20;;;;;;;8.05;4.22;;;;;;;7.95;100.00;100126.97;10174817;29;20127;-70
2020/12/14 11:40:21;;;;;;;8.02;4.18;;;;;;;8.00;100.00;100127.66;10174969;29;20151;-70
2020/12/14 11:45:22;;;;;;;7.22;4.50;;;;;;;8.10;100.00;100111.53;10174680;29;20047;-69
2020/12/14 11:50:23;;;;;;;5.90;3.85;;;;;;;8.23;100.00;100125.84;10175134;29;20392;-69
2020/12/14 11:55:24;;;;;;;5.93;3.67;;;;;;;8.35;100.00;100122.72;10174909;29;20056;-70
2020/12/14 12:00:25;;;;;;;7.32;4.20;;;;;;;8.46;100.00;100109.13;10175354;29;20044;-70
2020/12/14 12:05:26;;;;;;;10.35;4.18;;;;;;;8.48;100.00;100112.53;10173569;29;20048;-69
2020/12/14 12:10:29;;;;;;;7.90;3.75;;;;;;;8.56;100.00;100092.91;10172821;29;20044;-69
2020/12/14 12:15:30;;;;;;;7.18;3.90;;;;;;;8.72;100.00;100077.31;10173703;29;20559;-69
2020/12/14 12:20:31;;;;;;;7.00;4.45;;;;;;;8.79;100.00;100065.63;10172752;29;20055;-70
2020/12/14 12:25:32;;;;;;;5.07;3.60;;;;;;;8.61;100.00;100056.81;10170624;29;20559;-71
2020/12/14 12:30:34;;;;;;;4.90;3.50;;;;;;;8.76;100.00;100063.16;10172095;29;20484;-70
2020/12/14 12:35:35;;;;;;;6.38;3.55;;;;;;;8.78;100.00;100061.31;10161645;29;20044;-72
2020/12/14 12:40:37;;;;;;;7.22;3.70;;;;;;;8.99;100.00;100065.56;10167525;29;20048;-71
2020/12/14 12:45:38;;;;;;;7.43;3.50;;;;;;;9.03;100.00;100037.38;10171503;29;20048;-70
2020/12/14 12:51:02;;;;;;;8.18;3.67;;;;;;;8.99;100.00;100035.81;10172122;29;20135;-70
2020/12/14 12:56:00;;;;;;;7.55;4.15;;;;;;;8.99;100.00;100020.03;10158999;29;20056;-71
2020/12/14 13:01:02;;;;;;;8.00;4.03;;;;;;;9.00;100.00;100022.59;10170231;29;20516;-71
2020/12/14 13:06:03;;;;;;;6.28;3.45;;;;;;;9.05;100.00;100022.38;10172331;29;20056;-69
2020/12/14 13:11:04;;;;;;;6.03;3.10;;;;;;;9.19;100.00;100021.75;10171944;29;20080;-69
2020/12/14 13:16:05;;;;;;;5.53;3.10;;;;;;;9.16;100.00;100020.09;10171306;29;20063;-69
2020/12/14 13:21:07;;;;;;;7.25;3.45;;;;;;;9.10;100.00;100028.28;10171179;29;20496;-69
2020/12/14 13:26:08;;;;;;;5.82;3.72;;;;;;;9.07;100.00;100024.00;10171826;29;20515;-70
2020/12/14 13:31:09;;;;;;;5.95;3.75;;;;;;;9.14;100.00;100025.41;10172755;29;20036;-70
2020/12/14 13:36:10;;;;;;;6.05;4.07;;;;;;;9.12;100.00;100024.63;10172937;29;20051;-69
2020/12/14 13:41:12;;;;;;;7.00;3.60;;;;;;;9.21;100.00;100012.84;10140696;29;20457;-70
2020/12/14 13:46:14;;;;;;;6.13;3.40;;;;;;;9.16;100.00;100009.59;10172661;29;20048;-69
2020/12/14 13:51:19;;;;;;;6.93;3.17;;;;;;;9.08;100.00;100009.97;10179184;29;20051;-70
2020/12/14 13:56:20;;;;;;;6.45;3.70;;;;;;;9.17;100.00;100015.69;10179883;29;20448;-70
2020/12/14 14:01:21;;;;;;;7.80;3.63;;;;;;;9.16;100.00;100008.72;10179613;29;20046;-69
2020/12/14 14:06:23;;;;;;;5.72;3.30;;;;;;;9.08;100.00;99998.59;10177937;29;20044;-71
2020/12/14 14:11:24;;;;;;;8.60;3.03;;;;;;;9.06;100.00;100003.91;10177915;29;20058;-70
2020/12/14 14:16:25;;;;;;;7.70;2.85;;;;;;;8.99;100.00;100006.91;10173422;29;20052;-70
2020/12/14 14:21:28;;;;;;;4.22;2.83;;;;;;;8.96;100.00;100004.41;10165152;29;20055;-70
2020/12/14 14:26:29;;;;;;;6.15;2.70;;;;;;;8.87;100.00;100005.69;10176016;29;20480;-71
2020/12/14 14:31:30;;;;;;;7.95;3.53;;;;;;;8.83;100.00;100008.56;10176939;29;20519;-69
2020/12/14 14:36:32;;;;;;;6.82;3.53;;;;;;;8.75;100.00;100011.53;10172640;29;20052;-69
2020/12/14 14:41:33;;;;;;;4.07;2.97;;;;;;;8.65;100.00;100010.25;10175711;29;20059;-69
2020/12/14 14:46:34;;;;;;;6.50;2.80;;;;;;;8.68;100.00;99997.84;10177344;29;20040;-70
2020/12/14 14:51:35;;;;;;;5.80;3.25;;;;;;;8.72;100.00;100004.66;10175573;29;20123;-69
2020/12/14 14:56:36;;;;;;;5.57;2.90;;;;;;;8.67;100.00;99997.91;10176962;29;20054;-69
2020/12/14 15:01:38;;;;;;;5.18;3.33;;;;;;;8.62;100.00;100007.78;10177252;29;20044;-69
2020/12/14 15:06:40;;;;;;;6.25;3.78;;;;;;;8.53;100.00;100003.81;10176384;29;20127;-70
2020/12/14 15:11:41;;;;;;;5.38;3.50;;;;;;;8.49;100.00;100022.38;10176639;29;20048;-70
2020/12/14 15:16:44;;;;;;;10.85;4.32;;;;;;;8.46;100.00;100012.84;10176789;29;20036;-69
2020/12/14 15:21:46;;;;;;;9.57;4.45;;;;;;;8.49;100.00;100015.34;10176557;29;20055;-70
2020/12/14 15:26:47;;;;;;;6.80;3.88;;;;;;;8.39;100.00;100011.44;10175112;29;20111;-69
2020/12/14 15:31:49;;;;;;;6.35;3.60;;;;;;;8.26;100.00;100005.84;10176153;29;20043;-69
2020/12/14 15:36:53;;;;;;;10.18;4.13;;;;;;;8.21;100.00;100007.81;10176296;29;20078;-69
2020/12/14 15:41:54;;;;;;;7.40;3.83;;;;;;;8.21;100.00;100014.84;10175724;29;20059;-71
2020/12/14 15:46:55;;;;;;;6.03;3.50;;;;;;;8.16;100.00;100016.81;10174575;29;20040;-71
2020/12/14 15:51:57;;;;;;;5.82;3.70;;;;;;;8.07;100.00;100018.06;10174230;29;20059;-72
2020/12/14 15:56:58;;;;;;;7.25;3.25;;;;;;;8.21;100.00;100041.06;10174211;29;20051;-71
2020/12/14 16:01:59;;;;;;;5.13;2.85;;;;;;;8.36;100.00;100032.59;10173556;29;20480;-70
2020/12/14 16:07:00;;;;;;;6.53;3.17;;;;;;;8.46;100.00;100033.84;10174685;29;20059;-72
2020/12/14 16:12:01;;;;;;;6.80;3.45;;;;;;;8.49;100.00;100046.00;10174732;29;20046;-71
2020/12/14 16:17:03;;;;;;;7.80;3.75;;;;;;;8.39;100.00;100035.06;10172184;29;20067;-71
2020/12/14 16:22:04;;;;;;;5.68;3.95;;;;;;;8.54;100.00;100042.25;10172196;29;20078;-71
2020/12/14 16:27:05;;;;;;;7.15;4.28;;;;;;;8.50;100.00;100050.34;10172955;29;20063;-71
2020/12/14 16:32:06;;;;;;;7.57;3.95;;;;;;;8.47;100.00;100032.09;10174664;29;20052;-71
2020/12/14 16:37:11;;;;;;;6.07;3.55;;;;;;;8.55;100.00;100045.72;10174005;29;20059;-70
2020/12/14 16:42:12;;;;;;;7.80;3.93;;;;;;;8.60;100.00;100044.59;10172722;29;20052;-71
2020/12/14 16:47:13;;;;;;;7.00;3.80;;;;;;;8.59;100.00;100040.28;10174078;29;20543;-71
2020/12/14 16:52:14;;;;;;;4.97;3.65;;;;;;;8.69;100.00;100038.94;10173980;29;20131;-71
2020/12/14 16:57:16;;;;;;;7.85;4.40;;;;;;;8.68;100.00;100041.63;10173359;29;20048;-71
2020/12/14 17:02:18;;;;;;;5.97;3.95;;;;;;;8.63;100.00;100039.19;10173273;29;20056;-71
2020/12/14 17:07:29;;;;;;;5.78;3.17;;;;;;;8.65;100.00;100042.63;10172326;29;20044;-71
2020/12/14 17:12:45;;;;;;;6.60;4.03;;;;;;;8.63;100.00;100039.19;10174630;29;20058;-71
2020/12/14 17:17:46;;;;;;;5.82;3.67;;;;;;;8.51;100.00;100025.78;10174914;29;20048;-71
2020/12/14 17:22:48;;;;;;;7.80;4.22;;;;;;;8.42;100.00;100036.69;10171538;29;20063;-71
2020/12/14 17:27:49;;;;;;;8.07;4.90;;;;;;;8.48;100.00;100053.03;10179332;29;20052;-71
2020/12/14 17:32:55;;;;;;;7.82;4.05;;;;;;;8.45;100.00;100049.69;10178905;29;20127;-71
2020/12/14 17:37:56;;;;;;;6.30;4.05;;;;;;;8.33;100.00;100033.56;10177710;29;20044;-70
2020/12/14 17:42:58;;;;;;;6.53;4.32;;;;;;;8.31;100.00;100050.28;10178409;29;20047;-70
2020/12/14 17:47:59;;;;;;;6.35;3.85;;;;;;;8.32;100.00;100039.72;10178981;29;20058;-70
2020/12/14 17:53:00;;;;;;;8.60;3.90;;;;;;;8.20;100.00;100040.22;10177569;29;20072;-70
2020/12/14 17:58:01;;;;;;;7.97;4.15;;;;;;;8.08;100.00;100053.88;10177994;29;20078;-70
2020/12/14 18:03:05;;;;;;;6.32;3.83;;;;;;;8.16;100.00;100056.16;10177515;29;20092;-70
2020/12/14 18:08:07;;;;;;;8.70;4.00;;;;;;;8.09;100.00;100062.59;10176476;29;20046;-71
2020/12/14 18:13:09;;;;;;;8.98;4.40;;;;;;;8.18;100.00;100076.19;10173918;29;20044;-72
2020/12/14 18:18:11;;;;;;;6.00;3.97;;;;;;;8.17;100.00;100073.63;10176886;29;20399;-71
2020/12/14 18:23:12;;;;;;;6.55;4.18;;;;;;;8.09;100.00;100065.22;10173712;29;20477;-70
2020/12/14 18:28:13;;;;;;;8.68;4.57;;;;;;;8.12;100.00;100076.44;10174496;29;20048;-71
2020/12/14 18:46:25;;;;;;;8.23;5.45;;;;;;;8.05;100.00;100074.13;10175310;29;20056;-70
2020/12/14 19:44:42;;;;;;;8.48;5.22;;;;;;;7.30;100.00;100085.06;10170484;29;20047;-71
2020/12/14 21:25:34;;;;;;;6.03;4.20;;;;;;;7.15;100.00;100036.75;10161829;29;20072;-71
2020/12/14 21:30:35;;;;;;;6.63;4.30;;;;;;;7.16;100.00;100069.88;10174761;29;20044;-71
2020/12/14 21:35:36;;;;;;;7.05;4.30;;;;;;;7.05;100.00;100051.09;10186889;29;20131;-71
2020/12/14 21:40:37;;;;;;;6.05;4.20;;;;;;;7.06;100.00;100065.91;10176600;29;20055;-71
2020/12/14 21:45:38;;;;;;;7.28;4.85;;;;;;;7.02;100.00;100047.78;10177840;29;20050;-70
2020/12/14 21:50:39;;;;;;;9.13;5.07;;;;;;;6.93;100.00;100041.13;10176954;29;20377;-70
2020/12/14 21:55:40;;;;;;;6.80;5.07;;;;;;;6.97;100.00;100058.41;10175244;29;20058;-70
2020/12/14 22:00:42;;;;;;;5.90;5.10;;;;;;;7.00;100.00;100075.78;10176753;29;20072;-70
2020/12/14 22:05:43;;;;;;;7.82;4.38;;;;;;;7.21;100.00;100073.16;10176274;29;20051;-71
2020/12/14 22:10:45;;;;;;;6.88;4.38;;;;;;;7.31;100.00;100065.81;10176272;29;20135;-71
2020/12/14 22:15:46;;;;;;;5.38;3.70;;;;;;;7.29;100.00;100069.41;10172358;29;20046;-70
2020/12/14 22:20:47;;;;;;;8.07;4.95;;;;;;;7.38;100.00;100074.28;10178987;29;20659;-71
2020/12/14 22:25:48;;;;;;;8.18;4.22;;;;;;;7.43;100.00;100067.09;10177360;29;20090;-70
2020/12/14 22:30:49;;;;;;;6.28;4.32;;;;;;;7.55;100.00;100066.59;10176990;29;20051;-71
2020/12/14 22:35:50;;;;;;;6.57;5.28;;;;;;;7.49;100.00;100067.69;10176787;29;20512;-70
2020/12/14 22:40:52;;;;;;;6.13;4.63;;;;;;;7.58;100.00;100079.59;10177141;29;20055;-71
2020/12/14 22:45:53;;;;;;;9.10;5.57;;;;;;;7.44;100.00;100064.44;10161066;29;20044;-71
2020/12/14 22:50:54;;;;;;;6.93;4.82;;;;;;;7.56;100.00;100069.16;10177415;29;20044;-70
2020/12/14 22:55:56;;;;;;;6.05;4.35;;;;;;;7.62;100.00;100057.56;10177445;29;20040;-71
2020/12/14 23:00:57;;;;;;;7.60;4.95;;;;;;;7.57;100.00;100047.28;10177409;29;20040;-71
2020/12/14 23:05:58;;;;;;;6.55;4.50;;;;;;;7.57;100.00;100054.28;10176560;29;20388;-70
2020/12/14 23:10:59;;;;;;;6.95;4.40;;;;;;;7.56;100.00;100036.84;10168578;29;20045;-71
2020/12/14 23:16:00;;;;;;;6.25;3.80;;;;;;;7.58;100.00;100041.13;10168796;29;20366;-71
2020/12/14 23:21:03;;;;;;;5.20;4.35;;;;;;;7.51;100.00;100029.19;10175482;29;20048;-70
2020/12/14 23:26:05;;;;;;;6.68;4.78;;;;;;;7.50;100.00;100022.25;10175740;29;20392;-71
2020/12/14 23:31:06;;;;;;;7.05;4.88;;;;;;;7.46;100.00;100019.78;10176494;29;20051;-71
2020/12/14 23:36:14;;;;;;;7.63;5.55;;;;;;;7.53;100.00;100019.47;10173716;29;20059;-71
2020/12/14 23:41:15;;;;;;;7.70;5.63;;;;;;;7.49;100.00;100004.81;10176128;29;20044;-70
2020/12/14 23:46:16;;;;;;;6.47;5.20;;;;;;;7.35;100.00;100020.25;10175150;29;20457;-71
2020/12/14 23:51:17;;;;;;;7.05;4.93;;;;;;;7.36;100.00;100021.97;10175917;29;20048;-71
2020/12/14 23:56:18;;;;;;;5.68;4.30;;;;;;;7.13;100.00;100017.59;10174822;29;20044;-71
